sensor_id;sensor_type;location;lat;lon;timestamp;P1;durP1;ratioP1;P2;durP2;ratioP2
20008;SDS011;10165;42.662;23.260;2024-03-06T00:00:59;15.60;;;8.37;;
20008;SDS011;10165;42.662;23.260;2024-03-06T00:03:26;12.57;;;7.37;;
20008;SDS011;10165;42.662;23.260;2024-03-06T00:05:53;13.50;;;6.63;;
20008;SDS011;10165;42.662;23.260;2024-03-06T00:08:20;13.43;;;7.87;;
20008;SDS011;10165;42.662;23.260;2024-03-06T00:10:46;15.67;;;7.77;;
20008;SDS011;10165;42.662;23.260;2024-03-06T00:13:13;13.73;;;7.40;;
20008;SDS011;10165;42.662;23.260;2024-03-06T00:15:40;13.10;;;7.63;;
20008;SDS011;10165;42.662;23.260;2024-03-06T00:18:07;15.13;;;7.90;;
20008;SDS011;10165;42.662;23.260;2024-03-06T00:20:34;11.97;;;7.43;;
20008;SDS011;10165;42.662;23.260;2024-03-06T00:23:00;18.90;;;8.43;;
20008;SDS011;10165;42.662;23.260;2024-03-06T00:25:27;15.60;;;8.70;;
20008;SDS011;10165;42.662;23.260;2024-03-06T00:27:54;16.83;;;9.33;;
20008;SDS011;10165;42.662;23.260;2024-03-06T00:30:21;14.50;;;8.60;;
20008;SDS011;10165;42.662;23.260;2024-03-06T00:32:48;12.73;;;7.77;;
20008;SDS011;10165;42.662;23.260;2024-03-06T00:35:14;15.60;;;8.90;;
20008;SDS011;10165;42.662;23.260;2024-03-06T00:37:41;20.53;;;8.97;;
20008;SDS011;10165;42.662;23.260;2024-03-06T00:40:08;14.57;;;8.10;;
20008;SDS011;10165;42.662;23.260;2024-03-06T00:42:35;16.43;;;8.50;;
20008;SDS011;10165;42.662;23.260;2024-03-06T00:45:02;12.57;;;7.40;;
20008;SDS011;10165;42.662;23.260;2024-03-06T00:47:29;18.33;;;7.93;;
20008;SDS011;10165;42.662;23.260;2024-03-06T00:49:56;16.10;;;6.47;;
20008;SDS011;10165;42.662;23.260;2024-03-06T00:52:22;13.20;;;7.50;;
20008;SDS011;10165;42.662;23.260;2024-03-06T00:54:49;16.60;;;7.93;;
20008;SDS011;10165;42.662;23.260;2024-03-06T00:57:16;14.33;;;7.40;;
20008;SDS011;10165;42.662;23.260;2024-03-06T00:59:42;12.60;;;7.13;;
20008;SDS011;10165;42.662;23.260;2024-03-06T01:02:09;15.03;;;7.63;;
20008;SDS011;10165;42.662;23.260;2024-03-06T01:04:36;15.10;;;8.33;;
20008;SDS011;10165;42.662;23.260;2024-03-06T01:07:02;11.50;;;7.23;;
20008;SDS011;10165;42.662;23.260;2024-03-06T01:09:29;13.37;;;7.10;;
20008;SDS011;10165;42.662;23.260;2024-03-06T01:11:56;10.63;;;6.83;;
20008;SDS011;10165;42.662;23.260;2024-03-06T01:14:22;11.43;;;7.07;;
20008;SDS011;10165;42.662;23.260;2024-03-06T01:16:49;15.10;;;6.93;;
20008;SDS011;10165;42.662;23.260;2024-03-06T01:19:16;13.73;;;7.83;;
20008;SDS011;10165;42.662;23.260;2024-03-06T01:21:43;14.03;;;7.53;;
20008;SDS011;10165;42.662;23.260;2024-03-06T01:24:09;12.10;;;7.00;;
20008;SDS011;10165;42.662;23.260;2024-03-06T01:26:36;12.50;;;7.27;;
20008;SDS011;10165;42.662;23.260;2024-03-06T01:29:03;19.67;;;7.73;;
20008;SDS011;10165;42.662;23.260;2024-03-06T01:31:29;15.27;;;7.93;;
20008;SDS011;10165;42.662;23.260;2024-03-06T01:33:56;12.27;;;7.20;;
20008;SDS011;10165;42.662;23.260;2024-03-06T01:36:23;12.13;;;6.77;;
20008;SDS011;10165;42.662;23.260;2024-03-06T01:38:50;13.30;;;7.43;;
20008;SDS011;10165;42.662;23.260;2024-03-06T01:41:17;8.10;;;5.63;;
20008;SDS011;10165;42.662;23.260;2024-03-06T01:43:43;13.37;;;7.60;;
20008;SDS011;10165;42.662;23.260;2024-03-06T01:46:10;12.77;;;7.50;;
20008;SDS011;10165;42.662;23.260;2024-03-06T01:48:37;12.87;;;6.20;;
20008;SDS011;10165;42.662;23.260;2024-03-06T01:51:04;12.50;;;6.03;;
20008;SDS011;10165;42.662;23.260;2024-03-06T01:53:32;12.20;;;6.87;;
20008;SDS011;10165;42.662;23.260;2024-03-06T01:55:59;10.40;;;6.33;;
20008;SDS011;10165;42.662;23.260;2024-03-06T01:58:26;11.77;;;7.47;;
20008;SDS011;10165;42.662;23.260;2024-03-06T02:00:54;8.67;;;6.37;;
20008;SDS011;10165;42.662;23.260;2024-03-06T02:03:21;11.33;;;6.13;;
20008;SDS011;10165;42.662;23.260;2024-03-06T02:05:48;11.93;;;7.30;;
20008;SDS011;10165;42.662;23.260;2024-03-06T02:08:17;10.63;;;5.90;;
20008;SDS011;10165;42.662;23.260;2024-03-06T02:10:44;8.77;;;5.73;;
20008;SDS011;10165;42.662;23.260;2024-03-06T02:13:11;10.43;;;7.10;;
20008;SDS011;10165;42.662;23.260;2024-03-06T02:15:40;15.67;;;6.70;;
20008;SDS011;10165;42.662;23.260;2024-03-06T02:18:06;11.90;;;6.67;;
20008;SDS011;10165;42.662;23.260;2024-03-06T02:20:37;10.67;;;6.87;;
20008;SDS011;10165;42.662;23.260;2024-03-06T02:23:05;12.70;;;7.00;;
20008;SDS011;10165;42.662;23.260;2024-03-06T02:25:32;9.83;;;6.20;;
20008;SDS011;10165;42.662;23.260;2024-03-06T02:27:59;8.23;;;5.77;;
20008;SDS011;10165;42.662;23.260;2024-03-06T02:30:25;9.80;;;6.37;;
20008;SDS011;10165;42.662;23.260;2024-03-06T02:32:52;11.77;;;6.13;;
20008;SDS011;10165;42.662;23.260;2024-03-06T02:35:19;10.37;;;5.97;;
20008;SDS011;10165;42.662;23.260;2024-03-06T02:37:46;11.00;;;6.13;;
20008;SDS011;10165;42.662;23.260;2024-03-06T02:40:13;9.20;;;5.10;;
20008;SDS011;10165;42.662;23.260;2024-03-06T02:42:40;9.13;;;5.43;;
20008;SDS011;10165;42.662;23.260;2024-03-06T02:45:06;13.43;;;5.70;;
20008;SDS011;10165;42.662;23.260;2024-03-06T02:47:35;9.67;;;5.53;;
20008;SDS011;10165;42.662;23.260;2024-03-06T02:50:02;10.80;;;5.70;;
20008;SDS011;10165;42.662;23.260;2024-03-06T02:52:28;10.07;;;6.13;;
20008;SDS011;10165;42.662;23.260;2024-03-06T02:54:55;8.87;;;5.20;;
20008;SDS011;10165;42.662;23.260;2024-03-06T02:57:23;12.83;;;6.43;;
20008;SDS011;10165;42.662;23.260;2024-03-06T02:59:52;9.20;;;6.20;;
20008;SDS011;10165;42.662;23.260;2024-03-06T03:02:19;13.67;;;4.67;;
20008;SDS011;10165;42.662;23.260;2024-03-06T03:04:46;10.17;;;5.43;;
20008;SDS011;10165;42.662;23.260;2024-03-06T03:07:13;10.70;;;6.03;;
20008;SDS011;10165;42.662;23.260;2024-03-06T03:09:39;11.23;;;5.03;;
20008;SDS011;10165;42.662;23.260;2024-03-06T03:12:06;8.10;;;5.40;;
20008;SDS011;10165;42.662;23.260;2024-03-06T03:14:33;8.80;;;5.23;;
20008;SDS011;10165;42.662;23.260;2024-03-06T03:17:02;9.37;;;5.73;;
20008;SDS011;10165;42.662;23.260;2024-03-06T03:19:31;10.07;;;6.07;;
20008;SDS011;10165;42.662;23.260;2024-03-06T03:21:58;11.80;;;5.77;;
20008;SDS011;10165;42.662;23.260;2024-03-06T03:24:26;8.93;;;5.27;;
20008;SDS011;10165;42.662;23.260;2024-03-06T03:26:53;10.23;;;6.17;;
20008;SDS011;10165;42.662;23.260;2024-03-06T03:29:19;13.27;;;6.03;;
20008;SDS011;10165;42.662;23.260;2024-03-06T03:31:47;8.57;;;6.13;;
20008;SDS011;10165;42.662;23.260;2024-03-06T03:34:14;13.20;;;6.13;;
20008;SDS011;10165;42.662;23.260;2024-03-06T03:36:41;11.77;;;5.33;;
20008;SDS011;10165;42.662;23.260;2024-03-06T03:39:12;7.83;;;4.87;;
20008;SDS011;10165;42.662;23.260;2024-03-06T03:41:42;9.27;;;5.60;;
20008;SDS011;10165;42.662;23.260;2024-03-06T03:44:13;9.93;;;5.83;;
20008;SDS011;10165;42.662;23.260;2024-03-06T03:46:41;14.67;;;6.30;;
20008;SDS011;10165;42.662;23.260;2024-03-06T03:49:14;13.13;;;6.70;;
20008;SDS011;10165;42.662;23.260;2024-03-06T03:51:41;15.20;;;7.07;;
20008;SDS011;10165;42.662;23.260;2024-03-06T03:54:08;10.07;;;6.47;;
20008;SDS011;10165;42.662;23.260;2024-03-06T03:56:35;15.90;;;6.77;;
20008;SDS011;10165;42.662;23.260;2024-03-06T03:59:02;13.70;;;7.33;;
20008;SDS011;10165;42.662;23.260;2024-03-06T04:01:29;13.33;;;7.53;;
20008;SDS011;10165;42.662;23.260;2024-03-06T04:03:56;13.17;;;6.53;;
20008;SDS011;10165;42.662;23.260;2024-03-06T04:06:22;13.87;;;7.07;;
20008;SDS011;10165;42.662;23.260;2024-03-06T04:08:49;13.80;;;7.20;;
20008;SDS011;10165;42.662;23.260;2024-03-06T04:11:16;12.77;;;7.07;;
20008;SDS011;10165;42.662;23.260;2024-03-06T04:13:44;12.73;;;7.30;;
20008;SDS011;10165;42.662;23.260;2024-03-06T04:16:10;12.60;;;6.90;;
20008;SDS011;10165;42.662;23.260;2024-03-06T04:18:42;12.50;;;7.33;;
20008;SDS011;10165;42.662;23.260;2024-03-06T04:21:09;14.43;;;8.00;;
20008;SDS011;10165;42.662;23.260;2024-03-06T04:23:36;9.17;;;6.03;;
20008;SDS011;10165;42.662;23.260;2024-03-06T04:26:03;13.90;;;7.53;;
20008;SDS011;10165;42.662;23.260;2024-03-06T04:28:30;10.57;;;7.10;;
20008;SDS011;10165;42.662;23.260;2024-03-06T04:30:57;11.10;;;6.50;;
20008;SDS011;10165;42.662;23.260;2024-03-06T04:33:24;7.77;;;5.60;;
20008;SDS011;10165;42.662;23.260;2024-03-06T04:35:50;14.33;;;7.30;;
20008;SDS011;10165;42.662;23.260;2024-03-06T04:38:18;13.00;;;6.93;;
20008;SDS011;10165;42.662;23.260;2024-03-06T04:40:45;11.63;;;6.63;;
20008;SDS011;10165;42.662;23.260;2024-03-06T04:43:11;7.27;;;4.70;;
20008;SDS011;10165;42.662;23.260;2024-03-06T04:45:38;7.67;;;4.97;;
20008;SDS011;10165;42.662;23.260;2024-03-06T04:48:05;8.83;;;4.37;;
20008;SDS011;10165;42.662;23.260;2024-03-06T04:50:32;9.67;;;5.60;;
20008;SDS011;10165;42.662;23.260;2024-03-06T04:52:59;7.23;;;4.63;;
20008;SDS011;10165;42.662;23.260;2024-03-06T04:55:26;11.37;;;5.50;;
20008;SDS011;10165;42.662;23.260;2024-03-06T04:57:53;11.40;;;5.17;;
20008;SDS011;10165;42.662;23.260;2024-03-06T05:00:20;10.83;;;5.07;;
20008;SDS011;10165;42.662;23.260;2024-03-06T05:02:47;18.07;;;6.27;;
20008;SDS011;10165;42.662;23.260;2024-03-06T05:05:32;7.70;;;4.83;;
20008;SDS011;10165;42.662;23.260;2024-03-06T05:08:16;8.63;;;5.20;;
20008;SDS011;10165;42.662;23.260;2024-03-06T05:11:00;8.47;;;5.53;;
20008;SDS011;10165;42.662;23.260;2024-03-06T05:13:46;7.63;;;5.30;;
20008;SDS011;10165;42.662;23.260;2024-03-06T05:16:29;9.10;;;5.20;;
20008;SDS011;10165;42.662;23.260;2024-03-06T05:19:13;9.00;;;6.10;;
20008;SDS011;10165;42.662;23.260;2024-03-06T05:21:58;13.57;;;6.57;;
20008;SDS011;10165;42.662;23.260;2024-03-06T05:24:43;11.10;;;6.37;;
20008;SDS011;10165;42.662;23.260;2024-03-06T05:27:27;10.77;;;6.73;;
20008;SDS011;10165;42.662;23.260;2024-03-06T05:30:11;15.20;;;7.20;;
20008;SDS011;10165;42.662;23.260;2024-03-06T05:32:56;13.50;;;7.13;;
20008;SDS011;10165;42.662;23.260;2024-03-06T05:35:40;13.53;;;7.37;;
20008;SDS011;10165;42.662;23.260;2024-03-06T05:38:24;13.13;;;7.87;;
20008;SDS011;10165;42.662;23.260;2024-03-06T05:41:08;13.43;;;7.47;;
20008;SDS011;10165;42.662;23.260;2024-03-06T05:43:52;13.23;;;8.27;;
20008;SDS011;10165;42.662;23.260;2024-03-06T05:46:36;19.27;;;9.53;;
20008;SDS011;10165;42.662;23.260;2024-03-06T05:49:20;20.53;;;9.83;;
20008;SDS011;10165;42.662;23.260;2024-03-06T05:52:04;14.33;;;9.27;;
20008;SDS011;10165;42.662;23.260;2024-03-06T05:54:48;12.50;;;6.43;;
20008;SDS011;10165;42.662;23.260;2024-03-06T05:57:32;14.17;;;7.83;;
20008;SDS011;10165;42.662;23.260;2024-03-06T06:00:16;16.30;;;7.50;;
20008;SDS011;10165;42.662;23.260;2024-03-06T06:02:44;15.43;;;7.57;;
20008;SDS011;10165;42.662;23.260;2024-03-06T06:05:12;22.40;;;9.70;;
20008;SDS011;10165;42.662;23.260;2024-03-06T06:07:49;10.57;;;6.87;;
20008;SDS011;10165;42.662;23.260;2024-03-06T06:10:17;23.20;;;7.33;;
20008;SDS011;10165;42.662;23.260;2024-03-06T06:12:47;18.10;;;9.20;;
20008;SDS011;10165;42.662;23.260;2024-03-06T06:15:15;19.33;;;9.80;;
20008;SDS011;10165;42.662;23.260;2024-03-06T06:17:42;17.07;;;7.73;;
20008;SDS011;10165;42.662;23.260;2024-03-06T06:20:12;18.43;;;9.60;;
20008;SDS011;10165;42.662;23.260;2024-03-06T06:22:43;12.23;;;8.80;;
20008;SDS011;10165;42.662;23.260;2024-03-06T06:25:10;14.70;;;8.47;;
20008;SDS011;10165;42.662;23.260;2024-03-06T06:27:37;15.87;;;8.20;;
20008;SDS011;10165;42.662;23.260;2024-03-06T06:30:05;19.40;;;8.27;;
20008;SDS011;10165;42.662;23.260;2024-03-06T06:32:35;13.83;;;7.67;;
20008;SDS011;10165;42.662;23.260;2024-03-06T06:35:02;17.53;;;7.53;;
20008;SDS011;10165;42.662;23.260;2024-03-06T06:37:29;15.87;;;7.33;;
20008;SDS011;10165;42.662;23.260;2024-03-06T06:39:56;11.70;;;7.67;;
20008;SDS011;10165;42.662;23.260;2024-03-06T06:42:23;15.50;;;7.87;;
20008;SDS011;10165;42.662;23.260;2024-03-06T06:44:51;21.30;;;9.97;;
20008;SDS011;10165;42.662;23.260;2024-03-06T06:47:17;24.87;;;8.83;;
20008;SDS011;10165;42.662;23.260;2024-03-06T06:49:44;28.13;;;8.80;;
20008;SDS011;10165;42.662;23.260;2024-03-06T06:52:11;16.67;;;9.00;;
20008;SDS011;10165;42.662;23.260;2024-03-06T06:54:38;16.40;;;8.63;;
20008;SDS011;10165;42.662;23.260;2024-03-06T06:57:04;17.03;;;9.93;;
20008;SDS011;10165;42.662;23.260;2024-03-06T06:59:31;21.87;;;9.63;;
20008;SDS011;10165;42.662;23.260;2024-03-06T07:01:58;17.00;;;9.00;;
20008;SDS011;10165;42.662;23.260;2024-03-06T07:04:24;19.23;;;9.60;;
20008;SDS011;10165;42.662;23.260;2024-03-06T07:06:51;17.73;;;10.10;;
20008;SDS011;10165;42.662;23.260;2024-03-06T07:09:18;17.57;;;10.47;;
20008;SDS011;10165;42.662;23.260;2024-03-06T07:11:45;22.80;;;9.40;;
20008;SDS011;10165;42.662;23.260;2024-03-06T07:14:12;16.03;;;9.70;;
20008;SDS011;10165;42.662;23.260;2024-03-06T07:16:43;25.43;;;9.97;;
20008;SDS011;10165;42.662;23.260;2024-03-06T07:19:11;19.53;;;10.53;;
20008;SDS011;10165;42.662;23.260;2024-03-06T07:21:38;23.57;;;11.60;;
20008;SDS011;10165;42.662;23.260;2024-03-06T07:24:05;34.83;;;11.03;;
20008;SDS011;10165;42.662;23.260;2024-03-06T07:26:32;21.50;;;10.13;;
20008;SDS011;10165;42.662;23.260;2024-03-06T07:29:00;17.63;;;9.90;;
20008;SDS011;10165;42.662;23.260;2024-03-06T07:31:27;20.87;;;9.50;;
20008;SDS011;10165;42.662;23.260;2024-03-06T07:33:54;27.43;;;11.27;;
20008;SDS011;10165;42.662;23.260;2024-03-06T07:36:20;24.60;;;11.23;;
20008;SDS011;10165;42.662;23.260;2024-03-06T07:38:48;18.27;;;10.60;;
20008;SDS011;10165;42.662;23.260;2024-03-06T07:41:15;27.97;;;9.87;;
20008;SDS011;10165;42.662;23.260;2024-03-06T07:43:41;19.33;;;9.63;;
20008;SDS011;10165;42.662;23.260;2024-03-06T07:46:08;23.83;;;12.17;;
20008;SDS011;10165;42.662;23.260;2024-03-06T07:48:37;22.33;;;9.83;;
20008;SDS011;10165;42.662;23.260;2024-03-06T07:51:05;18.83;;;9.87;;
20008;SDS011;10165;42.662;23.260;2024-03-06T07:53:32;25.43;;;9.60;;
20008;SDS011;10165;42.662;23.260;2024-03-06T07:55:58;19.90;;;9.87;;
20008;SDS011;10165;42.662;23.260;2024-03-06T07:58:25;21.93;;;9.17;;
20008;SDS011;10165;42.662;23.260;2024-03-06T08:00:52;16.83;;;9.93;;
20008;SDS011;10165;42.662;23.260;2024-03-06T08:03:23;18.70;;;10.17;;
20008;SDS011;10165;42.662;23.260;2024-03-06T08:05:51;14.53;;;9.57;;
20008;SDS011;10165;42.662;23.260;2024-03-06T08:08:21;18.43;;;10.53;;
20008;SDS011;10165;42.662;23.260;2024-03-06T08:10:48;19.53;;;10.63;;
20008;SDS011;10165;42.662;23.260;2024-03-06T08:13:16;18.80;;;9.80;;
20008;SDS011;10165;42.662;23.260;2024-03-06T08:15:44;18.30;;;9.87;;
20008;SDS011;10165;42.662;23.260;2024-03-06T08:18:11;17.50;;;9.93;;
20008;SDS011;10165;42.662;23.260;2024-03-06T08:20:41;18.03;;;9.23;;
20008;SDS011;10165;42.662;23.260;2024-03-06T08:23:09;16.37;;;9.97;;
20008;SDS011;10165;42.662;23.260;2024-03-06T08:25:39;17.50;;;9.77;;
20008;SDS011;10165;42.662;23.260;2024-03-06T08:28:06;22.73;;;10.40;;
20008;SDS011;10165;42.662;23.260;2024-03-06T08:30:32;19.63;;;10.30;;
20008;SDS011;10165;42.662;23.260;2024-03-06T08:32:59;23.83;;;11.63;;
20008;SDS011;10165;42.662;23.260;2024-03-06T08:35:27;20.10;;;10.20;;
20008;SDS011;10165;42.662;23.260;2024-03-06T08:37:54;19.33;;;10.57;;
20008;SDS011;10165;42.662;23.260;2024-03-06T08:40:20;21.67;;;10.97;;
20008;SDS011;10165;42.662;23.260;2024-03-06T08:42:47;18.93;;;9.87;;
20008;SDS011;10165;42.662;23.260;2024-03-06T08:45:16;17.53;;;9.30;;
20008;SDS011;10165;42.662;23.260;2024-03-06T08:47:43;16.37;;;10.07;;
20008;SDS011;10165;42.662;23.260;2024-03-06T08:50:11;24.13;;;11.10;;
20008;SDS011;10165;42.662;23.260;2024-03-06T08:52:39;19.27;;;10.20;;
20008;SDS011;10165;42.662;23.260;2024-03-06T08:55:07;26.60;;;11.00;;
20008;SDS011;10165;42.662;23.260;2024-03-06T08:57:35;17.33;;;10.00;;
20008;SDS011;10165;42.662;23.260;2024-03-06T09:00:03;26.87;;;10.77;;
20008;SDS011;10165;42.662;23.260;2024-03-06T09:02:30;21.80;;;10.90;;
20008;SDS011;10165;42.662;23.260;2024-03-06T09:04:57;24.63;;;11.57;;
20008;SDS011;10165;42.662;23.260;2024-03-06T09:07:24;20.03;;;11.50;;
20008;SDS011;10165;42.662;23.260;2024-03-06T09:09:51;19.27;;;9.87;;
20008;SDS011;10165;42.662;23.260;2024-03-06T09:12:18;24.30;;;13.20;;
20008;SDS011;10165;42.662;23.260;2024-03-06T09:14:45;21.63;;;11.87;;
20008;SDS011;10165;42.662;23.260;2024-03-06T09:17:12;23.23;;;11.93;;
20008;SDS011;10165;42.662;23.260;2024-03-06T09:19:42;20.73;;;12.63;;
20008;SDS011;10165;42.662;23.260;2024-03-06T09:22:25;26.17;;;13.10;;
20008;SDS011;10165;42.662;23.260;2024-03-06T09:24:52;25.37;;;13.93;;
20008;SDS011;10165;42.662;23.260;2024-03-06T09:27:18;28.10;;;12.30;;
20008;SDS011;10165;42.662;23.260;2024-03-06T09:29:45;22.50;;;12.00;;
20008;SDS011;10165;42.662;23.260;2024-03-06T09:32:13;25.23;;;12.47;;
20008;SDS011;10165;42.662;23.260;2024-03-06T09:34:45;23.27;;;11.60;;
20008;SDS011;10165;42.662;23.260;2024-03-06T09:37:12;23.13;;;11.50;;
20008;SDS011;10165;42.662;23.260;2024-03-06T09:39:38;26.53;;;11.30;;
20008;SDS011;10165;42.662;23.260;2024-03-06T09:42:05;18.50;;;9.77;;
20008;SDS011;10165;42.662;23.260;2024-03-06T09:44:33;20.80;;;11.83;;
20008;SDS011;10165;42.662;23.260;2024-03-06T09:47:02;21.83;;;11.50;;
20008;SDS011;10165;42.662;23.260;2024-03-06T09:49:30;19.67;;;11.03;;
20008;SDS011;10165;42.662;23.260;2024-03-06T09:51:58;17.83;;;10.23;;
20008;SDS011;10165;42.662;23.260;2024-03-06T09:54:25;18.37;;;11.20;;
20008;SDS011;10165;42.662;23.260;2024-03-06T09:56:53;21.23;;;10.80;;
20008;SDS011;10165;42.662;23.260;2024-03-06T09:59:22;25.20;;;9.80;;
20008;SDS011;10165;42.662;23.260;2024-03-06T10:01:58;17.03;;;9.60;;
20008;SDS011;10165;42.662;23.260;2024-03-06T10:04:28;18.77;;;9.93;;
20008;SDS011;10165;42.662;23.260;2024-03-06T10:06:59;23.17;;;10.67;;
20008;SDS011;10165;42.662;23.260;2024-03-06T10:09:26;17.83;;;9.27;;
20008;SDS011;10165;42.662;23.260;2024-03-06T10:11:53;15.00;;;9.27;;
20008;SDS011;10165;42.662;23.260;2024-03-06T10:14:22;18.13;;;9.70;;
20008;SDS011;10165;42.662;23.260;2024-03-06T10:16:56;19.87;;;10.33;;
20008;SDS011;10165;42.662;23.260;2024-03-06T10:19:25;20.57;;;7.83;;
20008;SDS011;10165;42.662;23.260;2024-03-06T10:21:56;15.80;;;7.90;;
20008;SDS011;10165;42.662;23.260;2024-03-06T10:24:24;17.23;;;8.70;;
20008;SDS011;10165;42.662;23.260;2024-03-06T10:26:55;11.60;;;7.03;;
20008;SDS011;10165;42.662;23.260;2024-03-06T10:29:26;16.40;;;8.17;;
20008;SDS011;10165;42.662;23.260;2024-03-06T10:31:54;13.07;;;7.73;;
20008;SDS011;10165;42.662;23.260;2024-03-06T10:34:26;11.13;;;6.67;;
20008;SDS011;10165;42.662;23.260;2024-03-06T10:37:03;22.27;;;7.73;;
20008;SDS011;10165;42.662;23.260;2024-03-06T10:39:30;14.60;;;6.93;;
20008;SDS011;10165;42.662;23.260;2024-03-06T10:42:00;11.73;;;7.20;;
20008;SDS011;10165;42.662;23.260;2024-03-06T10:44:28;17.90;;;7.73;;
20008;SDS011;10165;42.662;23.260;2024-03-06T10:46:57;11.03;;;7.20;;
20008;SDS011;10165;42.662;23.260;2024-03-06T10:49:27;13.20;;;6.57;;
20008;SDS011;10165;42.662;23.260;2024-03-06T10:51:57;16.23;;;7.53;;
20008;SDS011;10165;42.662;23.260;2024-03-06T10:54:27;11.87;;;6.50;;
20008;SDS011;10165;42.662;23.260;2024-03-06T10:56:56;13.80;;;5.67;;
20008;SDS011;10165;42.662;23.260;2024-03-06T10:59:27;13.27;;;5.27;;
20008;SDS011;10165;42.662;23.260;2024-03-06T11:01:58;8.43;;;5.40;;
20008;SDS011;10165;42.662;23.260;2024-03-06T11:04:30;7.27;;;4.57;;
20008;SDS011;10165;42.662;23.260;2024-03-06T11:07:01;6.37;;;3.83;;
20008;SDS011;10165;42.662;23.260;2024-03-06T11:09:37;10.33;;;4.67;;
20008;SDS011;10165;42.662;23.260;2024-03-06T11:12:05;7.87;;;5.00;;
20008;SDS011;10165;42.662;23.260;2024-03-06T11:14:36;11.00;;;4.13;;
20008;SDS011;10165;42.662;23.260;2024-03-06T11:28:27;7.37;;;3.97;;
20008;SDS011;10165;42.662;23.260;2024-03-06T11:30:57;5.43;;;3.80;;
20008;SDS011;10165;42.662;23.260;2024-03-06T11:33:38;9.53;;;3.90;;
20008;SDS011;10165;42.662;23.260;2024-03-06T11:41:23;7.83;;;4.20;;
20008;SDS011;10165;42.662;23.260;2024-03-06T11:43:55;6.90;;;4.77;;
20008;SDS011;10165;42.662;23.260;2024-03-06T11:46:23;8.20;;;4.53;;
20008;SDS011;10165;42.662;23.260;2024-03-06T11:49:13;5.93;;;4.50;;
20008;SDS011;10165;42.662;23.260;2024-03-06T11:51:47;9.73;;;4.47;;
20008;SDS011;10165;42.662;23.260;2024-03-06T11:54:15;6.97;;;4.60;;
20008;SDS011;10165;42.662;23.260;2024-03-06T11:56:45;9.67;;;5.23;;
20008;SDS011;10165;42.662;23.260;2024-03-06T12:01:57;7.77;;;4.67;;
20008;SDS011;10165;42.662;23.260;2024-03-06T12:04:29;8.23;;;5.03;;
20008;SDS011;10165;42.662;23.260;2024-03-06T12:06:57;6.77;;;4.37;;
20008;SDS011;10165;42.662;23.260;2024-03-06T12:09:26;9.20;;;4.73;;
20008;SDS011;10165;42.662;23.260;2024-03-06T12:11:55;7.50;;;4.73;;
20008;SDS011;10165;42.662;23.260;2024-03-06T12:14:23;8.40;;;4.67;;
20008;SDS011;10165;42.662;23.260;2024-03-06T12:16:56;5.83;;;3.70;;
20008;SDS011;10165;42.662;23.260;2024-03-06T12:19:27;5.70;;;3.60;;
20008;SDS011;10165;42.662;23.260;2024-03-06T12:22:03;8.67;;;3.70;;
20008;SDS011;10165;42.662;23.260;2024-03-06T12:24:36;3.83;;;2.93;;
20008;SDS011;10165;42.662;23.260;2024-03-06T12:27:03;4.80;;;3.03;;
20008;SDS011;10165;42.662;23.260;2024-03-06T12:29:31;6.60;;;3.67;;
20008;SDS011;10165;42.662;23.260;2024-03-06T12:31:59;6.73;;;4.10;;
20008;SDS011;10165;42.662;23.260;2024-03-06T12:34:27;6.03;;;3.70;;
20008;SDS011;10165;42.662;23.260;2024-03-06T12:36:56;7.10;;;3.80;;
20008;SDS011;10165;42.662;23.260;2024-03-06T12:39:33;4.10;;;3.30;;
20008;SDS011;10165;42.662;23.260;2024-03-06T12:42:03;7.67;;;3.80;;
20008;SDS011;10165;42.662;23.260;2024-03-06T12:44:30;13.83;;;3.07;;
20008;SDS011;10165;42.662;23.260;2024-03-06T12:46:56;8.23;;;4.50;;
20008;SDS011;10165;42.662;23.260;2024-03-06T12:49:23;6.37;;;3.40;;
20008;SDS011;10165;42.662;23.260;2024-03-06T12:51:50;5.53;;;3.87;;
20008;SDS011;10165;42.662;23.260;2024-03-06T12:54:16;4.03;;;2.93;;
20008;SDS011;10165;42.662;23.260;2024-03-06T12:56:43;4.90;;;3.20;;
20008;SDS011;10165;42.662;23.260;2024-03-06T12:59:10;7.87;;;3.63;;
20008;SDS011;10165;42.662;23.260;2024-03-06T13:01:37;13.53;;;6.33;;
20008;SDS011;10165;42.662;23.260;2024-03-06T13:04:03;5.90;;;4.43;;
20008;SDS011;10165;42.662;23.260;2024-03-06T13:06:33;8.30;;;3.93;;
20008;SDS011;10165;42.662;23.260;2024-03-06T13:09:00;5.33;;;3.53;;
20008;SDS011;10165;42.662;23.260;2024-03-06T13:11:27;14.93;;;6.43;;
20008;SDS011;10165;42.662;23.260;2024-03-06T13:13:54;21.17;;;11.43;;
20008;SDS011;10165;42.662;23.260;2024-03-06T13:16:20;9.27;;;4.20;;
20008;SDS011;10165;42.662;23.260;2024-03-06T13:18:48;5.83;;;3.63;;
20008;SDS011;10165;42.662;23.260;2024-03-06T13:21:20;17.87;;;7.43;;
20008;SDS011;10165;42.662;23.260;2024-03-06T13:23:47;13.93;;;6.07;;
20008;SDS011;10165;42.662;23.260;2024-03-06T13:26:14;15.47;;;6.30;;
20008;SDS011;10165;42.662;23.260;2024-03-06T13:28:40;10.47;;;5.07;;
20008;SDS011;10165;42.662;23.260;2024-03-06T13:31:07;10.40;;;4.77;;
20008;SDS011;10165;42.662;23.260;2024-03-06T13:33:34;12.13;;;5.30;;
20008;SDS011;10165;42.662;23.260;2024-03-06T13:36:00;16.07;;;5.70;;
20008;SDS011;10165;42.662;23.260;2024-03-06T13:38:30;11.03;;;4.47;;
20008;SDS011;10165;42.662;23.260;2024-03-06T13:40:57;6.33;;;3.73;;
20008;SDS011;10165;42.662;23.260;2024-03-06T13:43:24;5.70;;;4.00;;
20008;SDS011;10165;42.662;23.260;2024-03-06T13:45:51;9.83;;;4.93;;
20008;SDS011;10165;42.662;23.260;2024-03-06T13:48:18;8.40;;;4.33;;
20008;SDS011;10165;42.662;23.260;2024-03-06T13:50:46;8.10;;;4.53;;
20008;SDS011;10165;42.662;23.260;2024-03-06T13:53:13;10.57;;;4.37;;
20008;SDS011;10165;42.662;23.260;2024-03-06T13:55:40;10.40;;;4.23;;
20008;SDS011;10165;42.662;23.260;2024-03-06T13:58:08;5.77;;;4.17;;
20008;SDS011;10165;42.662;23.260;2024-03-06T14:00:34;9.03;;;4.33;;
20008;SDS011;10165;42.662;23.260;2024-03-06T14:03:01;7.73;;;4.50;;
20008;SDS011;10165;42.662;23.260;2024-03-06T14:05:28;14.17;;;6.20;;
20008;SDS011;10165;42.662;23.260;2024-03-06T14:07:55;19.37;;;7.93;;
20008;SDS011;10165;42.662;23.260;2024-03-06T14:10:23;15.27;;;6.03;;
20008;SDS011;10165;42.662;23.260;2024-03-06T14:12:50;7.37;;;3.40;;
20008;SDS011;10165;42.662;23.260;2024-03-06T14:15:18;7.90;;;3.97;;
20008;SDS011;10165;42.662;23.260;2024-03-06T14:17:46;7.77;;;4.20;;
20008;SDS011;10165;42.662;23.260;2024-03-06T14:20:13;8.37;;;4.90;;
20008;SDS011;10165;42.662;23.260;2024-03-06T14:22:39;7.63;;;3.87;;
20008;SDS011;10165;42.662;23.260;2024-03-06T14:25:06;7.43;;;3.90;;
20008;SDS011;10165;42.662;23.260;2024-03-06T14:27:34;6.30;;;4.07;;
20008;SDS011;10165;42.662;23.260;2024-03-06T14:30:05;8.10;;;4.07;;
20008;SDS011;10165;42.662;23.260;2024-03-06T14:32:36;7.70;;;3.77;;
20008;SDS011;10165;42.662;23.260;2024-03-06T14:35:03;8.60;;;3.77;;
20008;SDS011;10165;42.662;23.260;2024-03-06T14:37:31;7.37;;;3.73;;
20008;SDS011;10165;42.662;23.260;2024-03-06T14:39:57;7.20;;;4.03;;
20008;SDS011;10165;42.662;23.260;2024-03-06T14:42:26;12.60;;;6.27;;
20008;SDS011;10165;42.662;23.260;2024-03-06T14:44:53;8.33;;;4.93;;
20008;SDS011;10165;42.662;23.260;2024-03-06T14:47:20;5.33;;;4.03;;
20008;SDS011;10165;42.662;23.260;2024-03-06T14:49:46;7.30;;;5.57;;
20008;SDS011;10165;42.662;23.260;2024-03-06T14:52:13;7.20;;;4.30;;